createdAt,value
2022-11-05T00:00:24.228Z,2.7
2022-11-05T00:05:24.987Z,2.7
2022-11-05T00:07:55.552Z,2.6
2022-11-05T00:10:46.164Z,2.6
2022-11-05T00:13:16.770Z,2.7
2022-11-05T00:15:47.376Z,2.7
2022-11-05T00:18:17.966Z,2.7
2022-11-05T00:20:48.559Z,2.7
2022-11-05T00:23:29.143Z,2.7
2022-11-05T00:25:59.752Z,2.7
2022-11-05T00:28:30.349Z,2.7
2022-11-05T00:31:00.968Z,2.7
2022-11-05T00:33:31.559Z,2.7
2022-11-05T00:36:02.162Z,2.7
2022-11-05T00:38:42.784Z,2.8
2022-11-05T00:41:13.398Z,2.9
2022-11-05T00:46:14.156Z,3.0
2022-11-05T00:48:44.719Z,3.1
2022-11-05T00:51:15.325Z,3.1
2022-11-05T00:53:55.938Z,3.0
2022-11-05T00:56:26.527Z,3.1
2022-11-05T00:58:57.112Z,3.0
2022-11-05T01:01:27.812Z,3.1
2022-11-05T01:03:58.773Z,3.1
2022-11-05T01:06:29.345Z,3.1
2022-11-05T01:09:09.931Z,3.1
2022-11-05T01:11:40.548Z,3.1
2022-11-05T01:14:11.157Z,3.1
2022-11-05T01:16:41.776Z,3.1
2022-11-05T01:19:12.349Z,3.2
2022-11-05T01:21:52.956Z,3.2
2022-11-05T01:26:53.679Z,3.3
2022-11-05T01:29:24.295Z,3.3
2022-11-05T01:31:54.889Z,3.3
2022-11-05T01:34:25.489Z,3.3
2022-11-05T01:37:06.086Z,3.3
2022-11-05T01:39:36.659Z,3.3
2022-11-05T01:42:07.261Z,3.3
2022-11-05T01:44:37.833Z,3.3
2022-11-05T01:47:08.427Z,3.3
2022-11-05T01:49:39.012Z,3.3
2022-11-05T01:52:19.628Z,3.2
2022-11-05T01:54:50.219Z,3.3
2022-11-05T01:57:20.798Z,3.3
2022-11-05T01:59:51.362Z,3.3
2022-11-05T02:02:22.101Z,3.3
2022-11-05T02:07:33.365Z,3.3
2022-11-05T02:10:03.937Z,3.3
2022-11-05T02:12:34.514Z,3.3
2022-11-05T02:15:05.121Z,3.3
2022-11-05T02:17:35.716Z,3.3
2022-11-05T02:20:06.298Z,3.2
2022-11-05T02:22:46.890Z,3.2
2022-11-05T02:25:17.461Z,3.2
2022-11-05T02:27:48.053Z,3.3
2022-11-05T02:30:28.670Z,3.3
2022-11-05T02:32:59.246Z,3.3
2022-11-05T02:35:30.435Z,3.3
2022-11-05T02:38:11.036Z,3.3
2022-11-05T02:40:41.627Z,3.4
2022-11-05T02:43:12.417Z,3.3
2022-11-05T02:48:13.354Z,3.3
2022-11-05T02:50:53.965Z,3.3
2022-11-05T02:53:24.571Z,3.3
2022-11-05T02:55:55.173Z,3.3
2022-11-05T02:58:25.772Z,3.4
2022-11-05T03:00:56.374Z,3.4
2022-11-05T03:03:27.208Z,3.4
2022-11-05T03:06:07.826Z,3.4
2022-11-05T03:08:38.392Z,3.4
2022-11-05T03:11:08.989Z,3.4
2022-11-05T03:13:39.567Z,3.4
2022-11-05T03:16:10.167Z,3.4
2022-11-05T03:18:40.796Z,3.4
2022-11-05T03:21:21.405Z,3.4
2022-11-05T03:23:51.978Z,3.4
2022-11-05T03:28:52.706Z,3.4
2022-11-05T03:31:23.285Z,3.4
2022-11-05T03:33:53.875Z,3.4
2022-11-05T03:36:34.478Z,3.3
2022-11-05T03:39:05.076Z,3.3
2022-11-05T03:41:35.688Z,3.3
2022-11-05T03:44:06.277Z,3.3
2022-11-05T03:46:36.864Z,3.3
2022-11-05T03:49:17.422Z,3.3
2022-11-05T03:51:48.022Z,3.4
2022-11-05T03:54:19.194Z,3.4
2022-11-05T03:56:49.780Z,3.4
2022-11-05T03:59:20.374Z,3.5
2022-11-05T04:01:51.053Z,3.5
2022-11-05T04:04:32.087Z,3.5
2022-11-05T04:09:32.815Z,3.5
2022-11-05T04:12:03.417Z,3.6
2022-11-05T04:14:34.017Z,3.6
2022-11-05T04:17:04.608Z,3.6
2022-11-05T04:19:45.192Z,3.6
2022-11-05T04:22:15.777Z,3.6
2022-11-05T04:24:46.341Z,3.6
2022-11-05T04:27:16.983Z,3.6
2022-11-05T04:29:47.585Z,3.6
2022-11-05T04:32:18.181Z,3.6
2022-11-05T04:34:58.790Z,3.6
2022-11-05T04:39:59.511Z,3.6
2022-11-05T04:42:30.100Z,3.7
2022-11-05T04:45:00.715Z,3.6
2022-11-05T04:50:21.455Z,3.7
2022-11-05T04:52:52.064Z,3.7
2022-11-05T04:55:13.115Z,3.7
2022-11-05T04:57:53.749Z,3.6
2022-11-05T05:00:24.337Z,3.6
2022-11-05T05:03:05.117Z,3.6
2022-11-05T05:05:35.740Z,3.5
2022-11-05T05:08:02.649Z,3.5
2022-11-05T05:10:33.240Z,3.5
2022-11-05T05:13:03.801Z,3.5
2022-11-05T05:15:34.583Z,3.5
2022-11-05T05:18:15.248Z,3.5
2022-11-05T05:20:45.873Z,3.5
2022-11-05T05:23:16.460Z,3.5
2022-11-05T05:25:47.059Z,3.5
2022-11-05T05:30:47.777Z,3.5
2022-11-05T05:33:29.333Z,3.5
2022-11-05T05:35:59.923Z,3.5
2022-11-05T05:38:32.023Z,3.5
2022-11-05T05:41:02.657Z,3.5
2022-11-05T05:43:33.257Z,3.5
2022-11-05T05:46:03.838Z,3.5
2022-11-05T05:48:44.458Z,3.5
2022-11-05T05:51:11.510Z,3.5
2022-11-05T05:53:42.096Z,3.5
2022-11-05T05:56:12.694Z,3.5
2022-11-05T05:58:43.287Z,3.5
2022-11-05T06:01:23.912Z,3.5
2022-11-05T06:06:25.088Z,3.6
2022-11-05T06:11:35.828Z,3.8
2022-11-05T06:14:06.425Z,3.9
2022-11-05T06:16:47.061Z,3.9
2022-11-05T06:19:17.646Z,3.9
2022-11-05T06:21:48.232Z,3.8
2022-11-05T06:24:18.804Z,3.9
2022-11-05T06:26:49.425Z,3.9
2022-11-05T06:29:20.021Z,3.9
2022-11-05T06:32:00.626Z,3.9
2022-11-05T06:34:31.199Z,3.9
2022-11-05T06:37:01.815Z,3.9
2022-11-05T06:39:32.410Z,3.9
2022-11-05T06:42:17.707Z,4.0
2022-11-05T06:44:28.603Z,4.0
2022-11-05T06:47:09.204Z,4.0
2022-11-05T06:52:09.953Z,4.1
2022-11-05T06:54:40.536Z,4.1
2022-11-05T06:57:11.137Z,4.1
2022-11-05T06:59:54.599Z,4.2
2022-11-05T07:02:28.744Z,4.2
2022-11-05T07:04:59.364Z,4.2
2022-11-05T07:07:29.958Z,4.3
2022-11-05T07:10:00.542Z,4.3
2022-11-05T07:12:31.141Z,4.3
2022-11-05T07:15:11.769Z,4.3
2022-11-05T07:17:42.355Z,4.3
2022-11-05T07:20:12.952Z,4.4
2022-11-05T07:22:44.763Z,4.4
2022-11-05T07:25:15.354Z,4.4
2022-11-05T07:27:45.970Z,4.4
2022-11-05T07:32:56.716Z,4.5
2022-11-05T07:35:27.307Z,4.5
2022-11-05T07:37:57.883Z,4.5
2022-11-05T07:40:28.465Z,4.4
2022-11-05T07:42:59.075Z,4.5
2022-11-05T07:45:40.212Z,4.5
2022-11-05T07:48:10.813Z,4.5
2022-11-05T07:50:41.426Z,4.5
2022-11-05T07:53:12.380Z,4.5
2022-11-05T07:55:43.160Z,4.5
2022-11-05T07:58:13.745Z,4.5
2022-11-05T08:00:54.444Z,4.6
2022-11-05T08:03:25.573Z,4.5
2022-11-05T08:05:56.605Z,4.6
2022-11-05T08:08:27.193Z,4.6
2022-11-05T08:13:37.938Z,4.7
2022-11-05T08:16:08.556Z,4.7
2022-11-05T08:18:39.247Z,4.7
2022-11-05T08:21:09.833Z,4.7
2022-11-05T08:23:40.415Z,4.7
2022-11-05T08:26:11.043Z,4.7
2022-11-05T08:28:51.683Z,4.8
2022-11-05T08:31:22.289Z,4.8
2022-11-05T08:33:52.876Z,4.9
2022-11-05T08:36:23.963Z,5.1
2022-11-05T08:38:54.545Z,5.2
2022-11-05T08:41:27.486Z,4.9
2022-11-05T08:44:08.066Z,5.2
2022-11-05T08:46:41.493Z,5.2
2022-11-05T08:49:12.290Z,5.2
2022-11-05T08:54:13.045Z,5.2
2022-11-05T08:56:43.621Z,5.3
2022-11-05T08:59:24.196Z,5.3
2022-11-05T09:01:54.824Z,5.5
2022-11-05T09:04:25.777Z,5.5
2022-11-05T09:06:56.379Z,5.4
2022-11-05T09:09:26.949Z,5.5
2022-11-05T09:12:11.509Z,5.6
2022-11-05T09:14:32.334Z,5.5
2022-11-05T09:17:12.938Z,5.4
2022-11-05T09:19:43.527Z,5.5
2022-11-05T09:22:14.128Z,5.7
2022-11-05T09:24:39.485Z,5.7
2022-11-05T09:27:20.142Z,5.8
2022-11-05T09:29:50.742Z,5.8
2022-11-05T09:34:51.477Z,5.7
2022-11-05T09:37:22.083Z,5.8
2022-11-05T09:39:52.692Z,6.0
2022-11-05T09:42:33.426Z,6.0
2022-11-05T09:45:03.997Z,5.9
2022-11-05T09:47:34.569Z,6.1
2022-11-05T09:50:05.166Z,6.1
2022-11-05T09:52:35.732Z,6.0
2022-11-05T09:55:06.329Z,6.0
2022-11-05T09:57:46.964Z,6.2
2022-11-05T10:00:17.560Z,6.3
2022-11-05T10:02:48.168Z,6.2
2022-11-05T10:05:19.218Z,6.1
2022-11-05T10:07:50.033Z,6.2
2022-11-05T10:10:20.687Z,6.1
2022-11-05T10:15:31.964Z,6.1
2022-11-05T10:18:02.551Z,6.2
2022-11-05T10:20:33.138Z,6.2
2022-11-05T10:23:03.699Z,6.2
2022-11-05T10:25:34.732Z,6.3
2022-11-05T10:28:15.358Z,6.4
2022-11-05T10:30:45.983Z,6.5
2022-11-05T10:33:16.593Z,6.4
2022-11-05T10:35:47.146Z,6.7
2022-11-05T10:38:27.736Z,6.8
2022-11-05T10:41:08.341Z,6.9
2022-11-05T10:43:38.937Z,6.8
2022-11-05T10:46:09.535Z,6.9
2022-11-05T10:48:43.582Z,6.7
2022-11-05T10:51:04.515Z,6.8
2022-11-05T10:56:15.274Z,6.5
2022-11-05T10:58:45.846Z,6.5
2022-11-05T11:01:22.405Z,6.3
2022-11-05T11:03:53.466Z,6.3
2022-11-05T11:06:24.077Z,6.2
2022-11-05T11:08:54.673Z,6.1
2022-11-05T11:11:35.261Z,6.1
2022-11-05T11:14:05.889Z,6.1
2022-11-05T11:16:36.486Z,6.1
2022-11-05T11:19:07.125Z,6.0
2022-11-05T11:21:37.722Z,6.1
2022-11-05T11:24:08.294Z,6.2
2022-11-05T11:26:43.757Z,6.3
2022-11-05T11:29:14.359Z,6.3
2022-11-05T11:31:44.991Z,6.2
2022-11-05T11:36:45.701Z,6.2
2022-11-05T11:39:36.262Z,6.2
2022-11-05T11:42:06.892Z,6.1
2022-11-05T11:44:37.472Z,6.1
2022-11-05T11:47:08.069Z,6.2
2022-11-05T11:49:38.641Z,6.3
2022-11-05T11:52:09.261Z,6.2
2022-11-05T11:54:49.887Z,6.2
2022-11-05T11:57:20.508Z,6.2
2022-11-05T12:00:08.121Z,6.3
2022-11-05T12:02:19.427Z,6.3
2022-11-05T12:04:50.308Z,6.3
2022-11-05T12:07:20.937Z,6.3
2022-11-05T12:10:01.529Z,6.6
2022-11-05T12:12:32.132Z,6.5
2022-11-05T12:17:32.848Z,6.7
2022-11-05T12:20:03.446Z,6.7
2022-11-05T12:22:34.135Z,6.7
2022-11-05T12:25:14.742Z,6.7
2022-11-05T12:27:45.350Z,6.8
2022-11-05T12:30:15.977Z,6.8
2022-11-05T12:32:46.672Z,6.9
2022-11-05T12:35:17.625Z,6.9
2022-11-05T12:37:53.020Z,6.9
2022-11-05T12:40:33.647Z,6.8
2022-11-05T12:43:07.716Z,6.6
2022-11-05T12:45:31.101Z,6.6
2022-11-05T12:48:01.681Z,6.7
2022-11-05T12:50:37.345Z,6.6
2022-11-05T12:53:07.932Z,6.6
2022-11-05T12:58:18.676Z,6.7
2022-11-05T13:00:49.285Z,6.8
2022-11-05T13:03:20.084Z,6.6
2022-11-05T13:05:50.690Z,6.7
2022-11-05T13:08:26.132Z,6.6
2022-11-05T13:10:56.722Z,6.4
2022-11-05T13:13:27.397Z,6.6
2022-11-05T13:15:57.988Z,6.6
2022-11-05T13:18:28.591Z,6.7
2022-11-05T13:20:59.174Z,6.8
2022-11-05T13:23:39.756Z,6.8
2022-11-05T13:26:10.792Z,6.6
2022-11-05T13:28:42.373Z,6.6
2022-11-05T13:31:12.984Z,6.7
2022-11-05T13:33:43.564Z,6.8
2022-11-05T13:38:54.282Z,6.8
2022-11-05T13:41:24.896Z,6.9
2022-11-05T13:43:55.465Z,7.1
2022-11-05T13:46:26.063Z,7.5
2022-11-05T13:48:56.639Z,8.0
2022-11-05T13:51:39.270Z,7.7
2022-11-05T13:54:10.114Z,7.6
2022-11-05T13:56:40.721Z,7.2
2022-11-05T13:59:11.312Z,6.8
2022-11-05T14:01:42.058Z,6.5
2022-11-05T14:04:13.021Z,6.2
2022-11-05T14:06:43.618Z,6.2
2022-11-05T14:09:24.219Z,6.0
2022-11-05T14:11:54.813Z,5.9
2022-11-05T14:14:25.383Z,5.7
2022-11-05T14:19:36.132Z,5.6
2022-11-05T14:22:06.696Z,5.6
2022-11-05T14:24:47.327Z,5.6
2022-11-05T14:27:17.910Z,5.6
2022-11-05T14:29:48.511Z,5.5
2022-11-05T14:32:19.149Z,5.5
2022-11-05T14:34:49.725Z,5.5
2022-11-05T14:37:20.321Z,5.5
2022-11-05T14:40:00.934Z,5.5
2022-11-05T14:42:31.542Z,5.6
2022-11-05T14:45:02.161Z,5.6
2022-11-05T14:47:32.792Z,5.6
2022-11-05T14:50:03.379Z,5.6
2022-11-05T14:52:43.980Z,5.6
2022-11-05T14:55:14.603Z,5.6
2022-11-05T15:00:15.369Z,5.6
2022-11-05T15:02:46.033Z,5.6
2022-11-05T15:05:16.667Z,5.6
2022-11-05T15:07:57.283Z,5.5
2022-11-05T15:10:27.861Z,5.4
2022-11-05T15:12:58.454Z,5.4
2022-11-05T15:15:29.314Z,5.4
2022-11-05T15:17:59.913Z,5.3
2022-11-05T15:20:30.512Z,5.3
2022-11-05T15:23:11.505Z,5.3
2022-11-05T15:25:42.267Z,5.3
2022-11-05T15:28:14.124Z,5.3
2022-11-05T15:30:44.733Z,5.3
2022-11-05T15:33:15.341Z,5.3
2022-11-05T15:35:45.915Z,5.2
2022-11-05T15:40:56.674Z,5.2
2022-11-05T15:43:27.398Z,5.2
2022-11-05T15:45:58.506Z,5.2
2022-11-05T15:48:29.067Z,5.2
2022-11-05T15:51:09.689Z,5.2
2022-11-05T15:53:56.435Z,5.2
2022-11-05T15:56:11.202Z,5.2
2022-11-05T15:58:41.778Z,5.1
2022-11-05T16:01:12.386Z,5.1
2022-11-05T16:03:43.317Z,4.9
2022-11-05T16:06:19.909Z,4.9
2022-11-05T16:08:50.495Z,4.9
2022-11-05T16:11:21.084Z,4.8
2022-11-05T16:13:51.641Z,4.8
2022-11-05T16:16:22.248Z,4.8
2022-11-05T16:21:43.023Z,4.7
2022-11-05T16:24:13.613Z,4.7
2022-11-05T16:27:01.617Z,4.7
2022-11-05T16:29:09.363Z,4.7
2022-11-05T16:31:39.975Z,4.7
2022-11-05T16:34:10.561Z,4.7
2022-11-05T16:36:51.144Z,4.7
2022-11-05T16:39:21.737Z,4.6
2022-11-05T16:41:52.413Z,4.5
2022-11-05T16:44:23.097Z,4.5
2022-11-05T16:46:53.680Z,4.5
2022-11-05T16:49:24.268Z,4.4
2022-11-05T16:52:04.881Z,4.4
2022-11-05T16:54:35.499Z,4.4
2022-11-05T16:57:06.099Z,4.3
2022-11-05T17:02:06.899Z,4.1
2022-11-05T17:04:48.223Z,4.0
2022-11-05T17:07:18.812Z,3.9
2022-11-05T17:09:51.880Z,3.9
2022-11-05T17:12:22.464Z,3.8
2022-11-05T17:14:53.083Z,3.7
2022-11-05T17:17:23.682Z,3.6
2022-11-05T17:20:04.306Z,3.6
2022-11-05T17:22:34.890Z,3.5
2022-11-05T17:25:05.478Z,3.5
2022-11-05T17:27:36.080Z,3.6
2022-11-05T17:30:06.694Z,3.6
2022-11-05T17:32:37.340Z,3.7
2022-11-05T17:35:18.181Z,3.8
2022-11-05T17:37:48.758Z,3.8
2022-11-05T17:42:49.513Z,3.9
2022-11-05T17:45:20.766Z,3.9
2022-11-05T17:47:51.354Z,3.9
2022-11-05T17:50:31.958Z,3.9
2022-11-05T17:53:02.542Z,3.9
2022-11-05T17:55:33.587Z,3.9
2022-11-05T17:58:04.162Z,4.0
2022-11-05T18:00:34.749Z,4.0
2022-11-05T18:03:15.525Z,4.1
2022-11-05T18:05:46.376Z,4.1
2022-11-05T18:08:16.953Z,4.0
2022-11-05T18:10:47.551Z,4.1
2022-11-05T18:13:18.117Z,4.1
2022-11-05T18:15:48.682Z,4.1
2022-11-05T18:18:29.286Z,4.1
2022-11-05T18:23:40.009Z,4.2
2022-11-05T18:26:10.592Z,4.2
2022-11-05T18:28:41.201Z,4.2
2022-11-05T18:31:16.824Z,4.2
2022-11-05T18:33:48.422Z,4.2
2022-11-05T18:36:19.013Z,4.1
2022-11-05T18:38:49.602Z,4.1
2022-11-05T18:41:20.217Z,4.2
2022-11-05T18:43:50.797Z,4.2
2022-11-05T18:46:43.502Z,4.2
2022-11-05T18:49:01.818Z,4.2
2022-11-05T18:51:32.418Z,4.1
2022-11-05T18:54:03.026Z,4.1
2022-11-05T18:56:33.616Z,4.1
2022-11-05T18:59:30.428Z,4.1
2022-11-05T19:04:15.789Z,4.1
2022-11-05T19:06:46.459Z,4.1
2022-11-05T19:09:22.082Z,4.1
2022-11-05T19:11:52.681Z,4.1
2022-11-05T19:14:23.246Z,4.1
2022-11-05T19:17:03.864Z,4.1
2022-11-05T19:19:34.460Z,4.1
2022-11-05T19:22:05.059Z,4.1
2022-11-05T19:24:35.633Z,4.1
2022-11-05T19:27:06.234Z,4.1
2022-11-05T19:29:36.838Z,4.1
2022-11-05T19:32:17.433Z,4.1
2022-11-05T19:34:48.027Z,4.1
2022-11-05T19:37:18.605Z,4.1
2022-11-05T19:39:49.184Z,4.1
2022-11-05T19:44:49.958Z,4.0
2022-11-05T19:47:34.716Z,4.1
2022-11-05T19:50:05.273Z,4.1
2022-11-05T19:52:35.858Z,4.1
2022-11-05T19:55:11.033Z,4.1
2022-11-05T19:57:32.564Z,4.1
2022-11-05T20:00:03.140Z,4.1
2022-11-05T20:02:44.407Z,4.0
2022-11-05T20:05:15.385Z,4.0
2022-11-05T20:07:51.377Z,4.0
2022-11-05T20:10:13.592Z,4.0
2022-11-05T20:12:54.172Z,4.0
2022-11-05T20:15:20.090Z,4.0
2022-11-05T20:18:00.702Z,4.0
2022-11-05T20:20:31.731Z,4.0
2022-11-05T20:25:32.474Z,4.0
2022-11-05T20:28:03.042Z,4.0
2022-11-05T20:30:44.121Z,4.0
2022-11-05T20:33:14.712Z,3.9
2022-11-05T20:35:45.308Z,3.9
2022-11-05T20:38:15.915Z,3.8
2022-11-05T20:40:46.533Z,3.8
2022-11-05T20:43:17.134Z,3.8
2022-11-05T20:46:00.967Z,3.9
2022-11-05T20:48:31.536Z,3.8
2022-11-05T20:51:02.131Z,3.7
2022-11-05T20:53:32.708Z,3.7
2022-11-05T20:56:07.573Z,3.6
2022-11-05T20:58:28.377Z,3.5
2022-11-05T21:01:19.118Z,3.5
2022-11-05T21:06:20.246Z,3.2
2022-11-05T21:08:50.835Z,3.1
2022-11-05T21:11:21.444Z,3.1
2022-11-05T21:13:52.011Z,3.0
2022-11-05T21:16:32.629Z,3.1
2022-11-05T21:19:03.207Z,3.1
2022-11-05T21:21:37.468Z,3.1
2022-11-05T21:23:59.307Z,3.1
2022-11-05T21:26:29.903Z,3.1
2022-11-05T21:29:00.509Z,3.3
2022-11-05T21:31:41.155Z,3.3
2022-11-05T21:34:11.759Z,3.3
2022-11-05T21:36:42.343Z,3.3
2022-11-05T21:39:13.798Z,3.3
2022-11-05T21:41:44.534Z,3.3
2022-11-05T21:46:55.305Z,3.3
2022-11-05T21:49:25.901Z,3.2
2022-11-05T21:51:56.492Z,3.2
2022-11-05T21:54:27.091Z,3.1
2022-11-05T21:56:57.676Z,3.0
2022-11-05T21:59:41.368Z,3.0
2022-11-05T22:02:12.130Z,2.8
2022-11-05T22:04:43.116Z,2.8
2022-11-05T22:07:13.714Z,2.8
2022-11-05T22:09:44.311Z,2.7
2022-11-05T22:12:14.911Z,2.7
2022-11-05T22:14:55.499Z,2.6
2022-11-05T22:17:26.096Z,2.5
2022-11-05T22:19:57.640Z,2.4
2022-11-05T22:22:28.243Z,2.3
2022-11-05T22:27:28.959Z,2.4
2022-11-05T22:30:09.565Z,2.7
2022-11-05T22:32:40.142Z,2.7
2022-11-05T22:35:10.759Z,2.7
2022-11-05T22:37:41.367Z,2.7
2022-11-05T22:40:11.969Z,2.7
2022-11-05T22:42:44.661Z,2.7
2022-11-05T22:45:25.295Z,2.7
2022-11-05T22:47:55.877Z,2.6
2022-11-05T22:50:27.497Z,2.5
2022-11-05T22:52:58.084Z,2.4
2022-11-05T22:55:28.689Z,2.3
2022-11-05T22:58:09.458Z,2.3
2022-11-05T23:00:40.153Z,2.1
2022-11-05T23:03:10.780Z,2.0
2022-11-05T23:08:11.744Z,1.9
2022-11-05T23:10:42.470Z,1.9
2022-11-05T23:13:23.041Z,1.8
2022-11-05T23:15:53.638Z,1.7
2022-11-05T23:18:24.237Z,1.7
2022-11-05T23:20:54.852Z,1.6
2022-11-05T23:23:29.488Z,1.5
2022-11-05T23:26:00.116Z,1.5
2022-11-05T23:28:40.716Z,1.4
2022-11-05T23:31:11.323Z,1.4
2022-11-05T23:33:41.937Z,1.4
2022-11-05T23:36:12.524Z,1.3
2022-11-05T23:38:43.167Z,1.3
2022-11-05T23:41:13.768Z,1.4
2022-11-05T23:43:54.386Z,1.4
2022-11-05T23:48:55.099Z,1.4
2022-11-05T23:51:25.678Z,1.5
2022-11-05T23:53:56.267Z,1.5
2022-11-05T23:56:36.874Z,1.5
2022-11-05T23:59:07.469Z,1.5
